createdAt,value
2018-10-18T00:00:43.568Z,66.50
2018-10-18T00:02:45.694Z,73.50
2018-10-18T00:04:48.124Z,71.60
2018-10-18T00:06:50.282Z,67.47
2018-10-18T00:08:52.412Z,68.33
2018-10-18T00:10:54.578Z,69.13
2018-10-18T00:12:56.742Z,69.70
2018-10-18T00:14:58.860Z,63.90
2018-10-18T00:17:00.999Z,63.20
2018-10-18T00:19:03.335Z,67.63
2018-10-18T00:21:05.488Z,64.60
2018-10-18T00:23:07.651Z,55.40
2018-10-18T00:25:09.783Z,57.43
2018-10-18T00:27:11.903Z,57.20
2018-10-18T00:29:14.025Z,56.20
2018-10-18T00:31:16.182Z,57.50
2018-10-18T00:33:18.294Z,55.17
2018-10-18T00:35:20.410Z,53.00
2018-10-18T00:37:22.575Z,57.43
2018-10-18T00:39:24.695Z,53.20
2018-10-18T00:41:26.819Z,54.37
2018-10-18T00:43:28.954Z,57.17
2018-10-18T00:45:31.091Z,56.77
2018-10-18T00:47:33.282Z,53.33
2018-10-18T00:49:35.607Z,48.43
2018-10-18T00:51:37.743Z,50.80
2018-10-18T00:53:39.859Z,53.53
2018-10-18T00:55:42.250Z,48.77
2018-10-18T00:57:44.423Z,46.13
2018-10-18T00:59:46.634Z,40.67
2018-10-18T01:01:48.779Z,46.57
2018-10-18T01:03:50.910Z,42.67
2018-10-18T01:05:53.085Z,42.23
2018-10-18T01:07:55.238Z,47.67
2018-10-18T01:09:57.370Z,44.87
2018-10-18T01:11:59.543Z,44.37
2018-10-18T01:14:01.744Z,45.60
2018-10-18T01:16:04.079Z,44.17
2018-10-18T01:18:06.452Z,45.67
2018-10-18T01:20:08.632Z,49.30
2018-10-18T01:22:10.705Z,45.47
2018-10-18T01:24:12.913Z,42.67
2018-10-18T01:26:15.037Z,47.63
2018-10-18T01:28:17.202Z,46.10
2018-10-18T01:30:19.528Z,41.20
2018-10-18T01:32:21.656Z,47.63
2018-10-18T01:34:23.786Z,48.30
2018-10-18T01:36:25.922Z,45.50
2018-10-18T01:38:28.402Z,47.13
2018-10-18T01:40:30.591Z,48.07
2018-10-18T01:42:32.733Z,52.90
2018-10-18T01:44:34.937Z,54.43
2018-10-18T01:46:37.339Z,51.87
2018-10-18T01:48:39.467Z,50.30
2018-10-18T01:50:41.588Z,50.00
2018-10-18T01:52:43.693Z,50.77
2018-10-18T01:54:46.330Z,52.80
2018-10-18T01:56:48.434Z,52.80
2018-10-18T01:58:50.552Z,48.03
2018-10-18T02:00:52.743Z,46.83
2018-10-18T02:02:54.877Z,50.17
2018-10-18T02:04:57.006Z,47.30
2018-10-18T02:06:59.159Z,53.03
2018-10-18T02:09:01.300Z,54.07
2018-10-18T02:11:03.665Z,45.93
2018-10-18T02:13:06.070Z,53.23
2018-10-18T02:15:09.784Z,46.67
2018-10-18T02:17:11.924Z,48.07
2018-10-18T02:19:14.080Z,43.17
2018-10-18T02:21:16.235Z,45.67
2018-10-18T02:23:18.355Z,47.13
2018-10-18T02:25:20.471Z,56.77
2018-10-18T02:27:23.293Z,50.23
2018-10-18T02:29:25.405Z,60.80
2018-10-18T02:31:27.657Z,54.10
2018-10-18T02:33:29.791Z,50.67
2018-10-18T02:35:31.930Z,58.73
2018-10-18T02:37:34.079Z,47.27
2018-10-18T02:39:36.222Z,54.23
2018-10-18T02:41:38.379Z,50.00
2018-10-18T02:43:40.501Z,53.10
2018-10-18T02:45:42.658Z,44.63
2018-10-18T02:47:44.806Z,48.63
2018-10-18T02:49:46.974Z,57.10
2018-10-18T02:51:49.087Z,54.27
2018-10-18T02:53:51.210Z,50.27
2018-10-18T02:55:53.388Z,52.30
2018-10-18T02:57:55.538Z,61.90
2018-10-18T02:59:57.713Z,48.70
2018-10-18T03:02:00.090Z,57.17
2018-10-18T03:04:02.245Z,54.10
2018-10-18T03:06:04.560Z,53.93
2018-10-18T03:08:06.714Z,53.07
2018-10-18T03:10:08.917Z,50.50
2018-10-18T03:12:11.101Z,47.27
2018-10-18T03:14:13.222Z,47.87
2018-10-18T03:16:15.471Z,42.33
2018-10-18T03:18:17.596Z,42.00
2018-10-18T03:20:19.611Z,41.53
2018-10-18T03:22:21.753Z,39.17
2018-10-18T03:24:23.886Z,33.63
2018-10-18T03:26:27.801Z,39.73
2018-10-18T03:28:30.127Z,33.30
2018-10-18T03:30:32.411Z,29.23
2018-10-18T03:32:34.671Z,31.73
2018-10-18T03:34:37.040Z,29.27
2018-10-18T03:36:39.364Z,28.43
2018-10-18T03:38:41.621Z,27.27
2018-10-18T03:43:11.213Z,25.97
2018-10-18T03:45:13.808Z,23.30
2018-10-18T03:47:16.204Z,22.90
2018-10-18T03:49:18.663Z,30.43
2018-10-18T03:51:20.920Z,36.03
2018-10-18T03:53:23.155Z,25.63
2018-10-18T03:55:25.464Z,22.00
2018-10-18T03:57:27.836Z,25.70
2018-10-18T03:59:30.359Z,22.50
2018-10-18T04:01:33.616Z,23.07
2018-10-18T04:03:38.765Z,22.83
2018-10-18T04:05:41.486Z,21.77
2018-10-18T04:07:43.846Z,23.77
2018-10-18T04:09:46.176Z,25.77
2018-10-18T04:11:48.857Z,22.40
2018-10-18T04:13:51.838Z,25.97
2018-10-18T04:15:55.345Z,24.43
2018-10-18T04:18:05.953Z,22.47
2018-10-18T04:20:17.133Z,23.33
2018-10-18T04:22:26.198Z,23.27
2018-10-18T04:24:29.280Z,21.17
2018-10-18T04:26:31.491Z,22.87
2018-10-18T04:28:33.714Z,20.93
2018-10-18T04:30:35.997Z,20.87
2018-10-18T04:32:38.158Z,20.73
2018-10-18T04:34:40.357Z,20.10
2018-10-18T04:36:42.566Z,18.00
2018-10-18T04:38:44.723Z,20.50
2018-10-18T04:40:46.923Z,18.63
2018-10-18T04:42:49.120Z,20.13
2018-10-18T04:44:51.316Z,19.30
2018-10-18T04:46:53.469Z,20.33
2018-10-18T04:48:55.782Z,21.07
2018-10-18T04:50:57.822Z,21.77
2018-10-18T04:53:00.099Z,22.50
2018-10-18T04:55:02.789Z,23.70
2018-10-18T04:57:05.451Z,21.07
2018-10-18T04:59:07.644Z,20.93
2018-10-18T05:01:09.915Z,19.50
2018-10-18T05:03:12.011Z,23.67
2018-10-18T05:05:25.782Z,22.07
2018-10-18T05:07:27.995Z,22.17
2018-10-18T05:09:30.155Z,23.60
2018-10-18T05:11:32.335Z,25.03
2018-10-18T05:13:34.687Z,23.70
2018-10-18T05:15:36.859Z,26.93
2018-10-18T05:17:39.052Z,29.43
2018-10-18T05:19:41.218Z,26.63
2018-10-18T05:21:43.426Z,27.50
2018-10-18T05:23:45.658Z,28.27
2018-10-18T05:25:49.211Z,28.37
2018-10-18T05:27:51.401Z,33.13
2018-10-18T05:29:53.564Z,30.40
2018-10-18T05:31:55.754Z,31.50
2018-10-18T05:33:58.277Z,31.70
2018-10-18T05:36:00.470Z,36.27
2018-10-18T05:38:02.687Z,29.20
2018-10-18T05:40:04.947Z,31.30
2018-10-18T05:42:07.127Z,29.90
2018-10-18T05:44:09.297Z,29.50
2018-10-18T05:46:11.611Z,32.00
2018-10-18T05:48:13.822Z,30.77
2018-10-18T05:50:16.035Z,28.20
2018-10-18T05:52:18.463Z,30.37
2018-10-18T05:54:20.783Z,32.60
2018-10-18T05:56:22.902Z,33.67
2018-10-18T05:58:25.284Z,34.17
2018-10-18T06:00:27.461Z,41.67
2018-10-18T06:02:29.711Z,72.20
2018-10-18T06:04:31.922Z,39.63
2018-10-18T06:06:34.115Z,35.07
2018-10-18T06:08:36.291Z,60.80
2018-10-18T06:10:50.112Z,67.27
2018-10-18T06:12:52.505Z,58.83
2018-10-18T06:14:54.636Z,46.93
2018-10-18T06:16:56.856Z,36.33
2018-10-18T06:18:59.037Z,40.30
2018-10-18T06:21:01.297Z,41.20
2018-10-18T06:23:03.530Z,37.27
2018-10-18T06:25:06.370Z,65.03
2018-10-18T06:27:08.499Z,54.80
2018-10-18T06:29:10.928Z,41.87
2018-10-18T06:31:13.166Z,87.20
2018-10-18T06:33:15.288Z,55.57
2018-10-18T06:35:17.559Z,48.80
2018-10-18T06:37:19.755Z,48.97
2018-10-18T06:39:21.918Z,41.50
2018-10-18T06:41:24.051Z,41.20
2018-10-18T06:43:26.267Z,29.80
2018-10-18T06:45:28.462Z,28.27
2018-10-18T06:47:30.743Z,30.33
2018-10-18T06:49:32.878Z,31.27
2018-10-18T06:51:35.060Z,30.47
2018-10-18T06:53:37.590Z,27.97
2018-10-18T06:55:39.754Z,27.07
2018-10-18T06:57:42.359Z,29.93
2018-10-18T06:59:44.558Z,26.13
2018-10-18T07:01:46.750Z,29.00
2018-10-18T07:03:48.946Z,27.93
2018-10-18T07:05:51.123Z,29.13
2018-10-18T07:07:54.063Z,27.50
2018-10-18T07:09:56.239Z,25.53
2018-10-18T07:11:58.420Z,28.67
2018-10-18T07:14:00.603Z,28.93
2018-10-18T07:16:02.955Z,26.20
2018-10-18T07:18:05.175Z,23.67
2018-10-18T07:20:07.772Z,28.40
2018-10-18T07:22:09.959Z,25.20
2018-10-18T07:24:12.253Z,23.90
2018-10-18T07:26:14.479Z,28.13
2018-10-18T07:28:16.699Z,27.07
2018-10-18T07:30:18.930Z,24.57
2018-10-18T07:32:21.069Z,26.27
2018-10-18T07:34:23.323Z,25.00
2018-10-18T07:36:25.475Z,24.80
2018-10-18T07:38:27.655Z,20.23
2018-10-18T07:40:29.880Z,30.57
2018-10-18T07:42:32.039Z,21.97
2018-10-18T07:44:34.217Z,22.63
2018-10-18T07:46:36.419Z,25.80
2018-10-18T07:48:38.619Z,21.73
2018-10-18T07:50:40.838Z,21.73
2018-10-18T07:52:43.091Z,23.70
2018-10-18T07:54:45.262Z,24.00
2018-10-18T07:56:47.822Z,26.93
2018-10-18T07:58:49.994Z,36.77
2018-10-18T08:00:52.909Z,34.73
2018-10-18T08:02:54.997Z,42.97
2018-10-18T08:04:57.180Z,36.77
2018-10-18T08:06:59.396Z,51.47
2018-10-18T08:09:01.831Z,47.03
2018-10-18T08:11:04.377Z,29.93
2018-10-18T08:13:06.538Z,26.13
2018-10-18T08:15:09.837Z,26.30
2018-10-18T08:17:12.288Z,27.80
2018-10-18T08:19:14.450Z,30.37
2018-10-18T08:21:16.603Z,28.27
2018-10-18T08:23:18.931Z,26.50
2018-10-18T08:25:21.123Z,31.50
2018-10-18T08:27:23.303Z,28.80
2018-10-18T08:29:25.572Z,31.50
2018-10-18T08:31:27.873Z,34.73
2018-10-18T08:33:29.919Z,29.93
2018-10-18T08:35:32.126Z,66.90
2018-10-18T08:37:34.358Z,118.60
2018-10-18T08:39:36.474Z,85.77
2018-10-18T08:41:38.663Z,45.53
2018-10-18T08:43:40.895Z,39.00
2018-10-18T08:45:42.999Z,33.83
2018-10-18T08:47:45.195Z,31.83
2018-10-18T08:49:47.446Z,31.80
2018-10-18T08:51:49.587Z,33.63
2018-10-18T08:53:51.767Z,37.50
2018-10-18T08:55:53.950Z,32.33
2018-10-18T08:57:56.129Z,28.87
2018-10-18T08:59:58.292Z,38.13
2018-10-18T09:02:00.483Z,50.13
2018-10-18T09:04:02.712Z,36.10
2018-10-18T09:06:04.911Z,31.93
2018-10-18T09:08:07.102Z,37.67
2018-10-18T09:10:09.367Z,33.43
2018-10-18T09:12:11.538Z,34.03
2018-10-18T09:14:13.710Z,31.17
2018-10-18T09:16:15.927Z,35.40
2018-10-18T09:18:18.661Z,30.73
2018-10-18T09:20:20.827Z,43.40
2018-10-18T09:22:23.006Z,36.87
2018-10-18T09:24:25.198Z,45.20
2018-10-18T09:26:27.361Z,38.23
2018-10-18T09:28:29.527Z,31.67
2018-10-18T09:30:31.781Z,39.77
2018-10-18T09:32:33.955Z,38.17
2018-10-18T09:34:36.174Z,31.63
2018-10-18T09:36:38.570Z,32.87
2018-10-18T09:38:40.710Z,35.47
2018-10-18T09:40:42.889Z,34.33
2018-10-18T09:42:45.110Z,36.63
2018-10-18T09:44:47.425Z,31.10
2018-10-18T09:46:49.549Z,44.90
2018-10-18T09:48:51.829Z,38.47
2018-10-18T09:50:54.034Z,36.40
2018-10-18T09:52:56.333Z,47.27
2018-10-18T09:55:04.248Z,38.00
2018-10-18T09:57:26.140Z,41.30
2018-10-18T09:59:28.522Z,34.73
2018-10-18T10:01:36.478Z,42.90
2018-10-18T10:03:38.638Z,34.13
2018-10-18T10:05:41.196Z,36.77
2018-10-18T10:07:43.407Z,24.07
2018-10-18T10:09:45.573Z,22.63
2018-10-18T10:11:48.365Z,24.50
2018-10-18T10:13:50.539Z,62.07
2018-10-18T10:15:52.654Z,24.43
2018-10-18T10:17:54.843Z,18.37
2018-10-18T10:19:57.086Z,28.60
2018-10-18T10:21:59.240Z,26.73
2018-10-18T10:24:01.414Z,22.70
2018-10-18T10:26:03.744Z,22.43
2018-10-18T10:28:05.941Z,19.10
2018-10-18T10:30:08.598Z,18.87
2018-10-18T10:32:10.728Z,13.37
2018-10-18T10:34:12.906Z,15.30
2018-10-18T10:36:15.162Z,14.93
2018-10-18T10:38:17.375Z,13.60
2018-10-18T10:40:19.620Z,13.63
2018-10-18T10:42:21.767Z,13.17
2018-10-18T10:44:23.973Z,11.63
2018-10-18T10:46:26.138Z,11.47
2018-10-18T10:48:35.131Z,13.10
2018-10-18T10:50:37.964Z,11.40
2018-10-18T10:52:40.182Z,22.10
2018-10-18T10:54:42.350Z,13.83
2018-10-18T10:56:44.508Z,11.13
2018-10-18T10:58:46.746Z,10.00
2018-10-18T11:01:20.657Z,18.60
2018-10-18T11:03:22.806Z,17.20
2018-10-18T11:05:25.095Z,13.97
2018-10-18T11:07:27.249Z,13.10
2018-10-18T11:09:29.553Z,8.33
2018-10-18T11:11:31.630Z,8.07
2018-10-18T11:13:33.802Z,4.70
2018-10-18T11:15:35.979Z,6.30
2018-10-18T11:17:38.158Z,8.43
2018-10-18T11:19:40.291Z,6.90
2018-10-18T11:21:42.482Z,6.80
2018-10-18T11:23:44.656Z,6.80
2018-10-18T11:25:46.811Z,10.30
2018-10-18T11:27:48.965Z,12.63
2018-10-18T11:29:51.156Z,9.30
2018-10-18T11:31:53.331Z,14.53
2018-10-18T11:33:55.474Z,8.13
2018-10-18T11:35:57.684Z,10.90
2018-10-18T11:37:59.844Z,14.50
2018-10-18T11:40:02.046Z,56.57
2018-10-18T11:42:04.609Z,244.87
2018-10-18T11:44:06.809Z,46.93
2018-10-18T11:46:08.937Z,20.80
2018-10-18T11:48:12.331Z,12.20
2018-10-18T11:50:14.535Z,25.37
2018-10-18T11:52:16.675Z,12.43
2018-10-18T11:54:18.856Z,15.37
2018-10-18T11:56:21.035Z,11.87
2018-10-18T11:58:23.200Z,12.80
2018-10-18T12:00:25.574Z,18.93
2018-10-18T12:02:27.808Z,25.57
2018-10-18T12:04:29.961Z,54.93
2018-10-18T12:06:32.358Z,28.37
2018-10-18T12:08:34.616Z,21.33
2018-10-18T12:10:36.867Z,11.57
2018-10-18T12:12:39.041Z,15.23
2018-10-18T12:14:41.232Z,12.20
2018-10-18T12:16:43.409Z,7.90
2018-10-18T12:18:45.618Z,11.47
2018-10-18T12:20:47.940Z,6.77
2018-10-18T12:22:50.150Z,6.97
2018-10-18T12:24:52.303Z,13.83
2018-10-18T12:26:54.553Z,8.20
2018-10-18T12:28:56.673Z,9.93
2018-10-18T12:30:58.818Z,10.20
2018-10-18T12:33:00.987Z,7.67
2018-10-18T12:35:03.223Z,30.17
2018-10-18T12:37:05.362Z,24.23
2018-10-18T12:39:08.036Z,18.23
2018-10-18T12:41:10.452Z,15.90
2018-10-18T12:43:12.409Z,15.03
2018-10-18T12:45:14.581Z,14.10
2018-10-18T12:47:17.052Z,15.10
2018-10-18T12:49:19.226Z,13.80
2018-10-18T12:51:21.442Z,8.00
2018-10-18T12:53:24.656Z,9.97
2018-10-18T12:55:26.912Z,11.67
2018-10-18T12:57:29.096Z,9.47
2018-10-18T12:59:31.266Z,12.27
2018-10-18T13:01:33.503Z,12.20
2018-10-18T13:03:35.683Z,9.00
2018-10-18T13:05:37.840Z,10.50
2018-10-18T13:07:40.090Z,13.83
2018-10-18T13:09:42.254Z,8.60
2018-10-18T13:11:44.456Z,4.80
2018-10-18T13:13:46.697Z,10.30
2018-10-18T13:15:48.851Z,14.60
2018-10-18T13:17:51.058Z,14.53
2018-10-18T13:19:53.241Z,7.60
2018-10-18T13:21:55.375Z,7.97
2018-10-18T13:23:57.657Z,6.87
2018-10-18T13:25:59.848Z,6.93
2018-10-18T13:28:01.970Z,5.20
2018-10-18T13:30:05.912Z,7.40
2018-10-18T13:32:08.050Z,4.03
2018-10-18T13:34:10.264Z,5.90
2018-10-18T13:36:12.480Z,4.67
2018-10-18T13:38:14.834Z,13.80
2018-10-18T13:40:16.978Z,7.00
2018-10-18T13:42:19.189Z,24.93
2018-10-18T13:44:21.356Z,9.17
2018-10-18T13:46:23.618Z,29.03
2018-10-18T13:48:25.808Z,16.43
2018-10-18T13:50:27.995Z,15.07
2018-10-18T13:52:30.152Z,44.43
2018-10-18T13:54:32.306Z,18.03
2018-10-18T13:56:34.474Z,19.70
2018-10-18T13:58:36.842Z,14.07
2018-10-18T14:00:39.072Z,16.33
2018-10-18T14:02:41.244Z,17.93
2018-10-18T14:04:43.418Z,13.03
2018-10-18T14:06:45.574Z,7.70
2018-10-18T14:08:48.432Z,7.40
2018-10-18T14:10:50.582Z,8.70
2018-10-18T14:12:53.171Z,5.53
2018-10-18T14:14:55.356Z,7.83
2018-10-18T14:16:57.640Z,7.97
2018-10-18T14:18:59.784Z,6.80
2018-10-18T14:21:02.042Z,4.57
2018-10-18T14:23:04.309Z,8.23
2018-10-18T14:25:06.644Z,4.30
2018-10-18T14:27:08.880Z,4.80
2018-10-18T14:29:11.054Z,5.50
2018-10-18T14:31:13.259Z,3.97
2018-10-18T14:33:15.694Z,5.37
2018-10-18T14:35:17.971Z,3.30
2018-10-18T14:37:20.128Z,6.10
2018-10-18T14:39:22.343Z,3.70
2018-10-18T14:41:24.620Z,10.80
2018-10-18T14:43:26.830Z,8.33
2018-10-18T14:45:29.088Z,7.07
2018-10-18T14:47:31.302Z,5.53
2018-10-18T14:49:33.412Z,10.70
2018-10-18T14:51:35.733Z,53.80
2018-10-18T14:53:37.899Z,21.13
2018-10-18T14:55:40.105Z,12.20
2018-10-18T14:57:42.297Z,12.73
2018-10-18T14:59:44.509Z,12.53
2018-10-18T15:01:46.645Z,8.63
2018-10-18T15:03:48.852Z,11.47
2018-10-18T15:05:51.039Z,8.40
2018-10-18T15:07:53.226Z,11.67
2018-10-18T15:09:55.343Z,12.00
2018-10-18T15:11:57.718Z,9.33
2018-10-18T15:13:59.880Z,6.60
2018-10-18T15:16:02.013Z,8.30
2018-10-18T15:18:04.473Z,6.83
2018-10-18T15:20:07.433Z,8.87
2018-10-18T15:22:09.542Z,6.93
2018-10-18T15:24:12.040Z,10.73
2018-10-18T15:26:18.101Z,8.13
2018-10-18T15:28:20.807Z,5.90
2018-10-18T15:30:23.032Z,8.77
2018-10-18T15:32:25.270Z,3.70
2018-10-18T15:34:27.397Z,5.33
2018-10-18T15:36:29.523Z,7.70
2018-10-18T15:38:31.778Z,4.10
2018-10-18T15:40:33.834Z,4.57
2018-10-18T15:42:35.957Z,7.33
2018-10-18T15:44:38.134Z,5.53
2018-10-18T15:46:40.282Z,8.40
2018-10-18T15:48:42.410Z,9.43
2018-10-18T15:50:44.558Z,9.30
2018-10-18T15:52:46.686Z,8.67
2018-10-18T15:54:48.810Z,6.77
2018-10-18T15:56:51.135Z,7.13
2018-10-18T15:58:53.343Z,9.07
2018-10-18T16:00:55.898Z,8.80
2018-10-18T16:02:58.147Z,8.27
2018-10-18T16:05:00.276Z,9.07
2018-10-18T16:07:02.550Z,7.70
2018-10-18T16:09:08.879Z,7.03
2018-10-18T16:11:11.484Z,7.63
2018-10-18T16:13:14.569Z,7.97
2018-10-18T16:15:18.442Z,14.23
2018-10-18T16:17:20.711Z,14.80
2018-10-18T16:19:22.772Z,14.33
2018-10-18T16:21:25.161Z,15.43
2018-10-18T16:23:27.426Z,9.83
2018-10-18T16:25:29.607Z,14.70
2018-10-18T16:27:36.055Z,9.50
2018-10-18T16:29:38.190Z,15.47
2018-10-18T16:31:41.106Z,13.87
2018-10-18T16:33:43.499Z,12.93
2018-10-18T16:35:45.583Z,12.07
2018-10-18T16:37:47.761Z,38.13
2018-10-18T16:39:50.089Z,46.20
2018-10-18T16:41:52.544Z,41.67
2018-10-18T16:43:54.700Z,26.23
2018-10-18T16:45:56.890Z,14.70
2018-10-18T16:47:59.026Z,15.10
2018-10-18T16:50:01.477Z,17.40
2018-10-18T16:52:04.605Z,16.13
2018-10-18T16:54:07.015Z,19.60
2018-10-18T16:56:09.215Z,19.20
2018-10-18T16:58:12.318Z,19.63
2018-10-18T17:00:14.710Z,18.47
2018-10-18T17:02:16.855Z,17.07
2018-10-18T17:04:18.974Z,19.30
2018-10-18T17:06:21.106Z,14.93
2018-10-18T17:08:23.224Z,13.77
2018-10-18T17:10:25.351Z,15.03
2018-10-18T17:12:27.922Z,12.00
2018-10-18T17:14:30.194Z,12.47
2018-10-18T17:16:32.363Z,15.40
2018-10-18T17:18:34.534Z,12.27
2018-10-18T17:20:36.784Z,12.63
2018-10-18T17:22:38.862Z,8.50
2018-10-18T17:24:40.987Z,10.00
2018-10-18T17:26:43.211Z,14.57
2018-10-18T17:28:45.250Z,8.67
2018-10-18T17:30:47.395Z,11.20
2018-10-18T17:32:49.547Z,9.57
2018-10-18T17:34:51.702Z,11.33
2018-10-18T17:36:53.832Z,7.97
2018-10-18T17:38:55.967Z,14.60
2018-10-18T17:40:58.122Z,13.10
2018-10-18T17:43:00.351Z,10.77
2018-10-18T17:45:02.502Z,11.23
2018-10-18T17:47:05.524Z,13.53
2018-10-18T17:49:07.755Z,12.63
2018-10-18T17:51:10.095Z,13.83
2018-10-18T17:53:12.379Z,15.40
2018-10-18T17:55:17.608Z,15.63
2018-10-18T17:57:20.172Z,70.37
2018-10-18T17:59:22.546Z,57.93
2018-10-18T18:01:24.924Z,46.90
2018-10-18T18:03:27.094Z,35.20
2018-10-18T18:05:29.216Z,15.77
2018-10-18T18:07:31.673Z,12.30
2018-10-18T18:09:33.743Z,10.80
2018-10-18T18:11:36.185Z,17.27
2018-10-18T18:13:38.447Z,18.10
2018-10-18T18:15:40.863Z,26.53
2018-10-18T18:17:43.078Z,16.27
2018-10-18T18:19:45.210Z,11.40
2018-10-18T18:21:47.418Z,11.80
2018-10-18T18:23:49.546Z,15.17
2018-10-18T18:25:52.263Z,11.60
2018-10-18T18:27:54.783Z,31.90
2018-10-18T18:29:57.014Z,17.53
2018-10-18T18:31:59.413Z,16.00
2018-10-18T18:34:01.743Z,10.90
2018-10-18T18:36:04.456Z,16.73
2018-10-18T18:38:06.738Z,20.53
2018-10-18T18:40:09.636Z,22.47
2018-10-18T18:42:12.063Z,18.53
2018-10-18T18:44:14.491Z,13.00
2018-10-18T18:46:17.185Z,14.97
2018-10-18T18:48:19.435Z,19.67
2018-10-18T18:50:21.630Z,21.87
2018-10-18T18:52:24.015Z,55.17
2018-10-18T18:54:26.194Z,28.30
2018-10-18T18:56:28.343Z,28.17
2018-10-18T18:58:31.939Z,19.03
2018-10-18T19:00:34.053Z,22.30
2018-10-18T19:02:40.198Z,28.10
2018-10-18T19:04:42.401Z,20.40
2018-10-18T19:06:44.579Z,15.43
2018-10-18T19:08:46.698Z,17.23
2018-10-18T19:10:49.467Z,15.83
2018-10-18T19:12:51.875Z,16.80
2018-10-18T19:14:54.060Z,15.20
2018-10-18T19:16:56.540Z,17.33
2018-10-18T19:18:58.663Z,14.40
2018-10-18T19:21:00.840Z,14.97
2018-10-18T19:23:03.041Z,15.47
2018-10-18T19:25:06.670Z,12.23
2018-10-18T19:27:08.855Z,12.17
2018-10-18T19:29:11.440Z,10.10
2018-10-18T19:31:14.456Z,11.80
2018-10-18T19:33:16.785Z,9.63
2018-10-18T19:35:18.966Z,11.80
2018-10-18T19:37:21.183Z,10.77
2018-10-18T19:39:23.391Z,10.60
2018-10-18T19:41:25.624Z,10.03
2018-10-18T19:43:27.835Z,11.03
2018-10-18T19:45:30.096Z,13.23
2018-10-18T19:47:32.568Z,12.80
2018-10-18T19:49:34.822Z,10.13
2018-10-18T19:51:37.074Z,8.47
2018-10-18T19:53:39.366Z,9.53
2018-10-18T19:55:41.555Z,7.90
2018-10-18T19:57:43.799Z,8.53
2018-10-18T19:59:46.163Z,8.27
2018-10-18T20:01:48.604Z,10.93
2018-10-18T20:03:50.923Z,9.97
2018-10-18T20:05:53.063Z,9.17
2018-10-18T20:07:55.351Z,10.67
2018-10-18T20:09:57.390Z,10.47
2018-10-18T20:12:00.554Z,8.90
2018-10-18T20:14:02.693Z,9.10
2018-10-18T20:16:04.966Z,10.47
2018-10-18T20:18:07.598Z,12.83
2018-10-18T20:20:10.049Z,7.50
2018-10-18T20:22:12.999Z,9.20
2018-10-18T20:24:15.130Z,10.70
2018-10-18T20:26:17.718Z,8.87
2018-10-18T20:28:20.572Z,8.40
2018-10-18T20:30:22.747Z,7.40
2018-10-18T20:32:24.889Z,7.60
2018-10-18T20:34:27.070Z,13.27
2018-10-18T20:36:29.355Z,10.30
2018-10-18T20:38:32.210Z,10.93
2018-10-18T20:40:34.355Z,9.17
2018-10-18T20:42:36.530Z,12.93
2018-10-18T20:44:38.687Z,10.40
2018-10-18T20:46:40.871Z,11.10
2018-10-18T20:48:43.183Z,13.70
2018-10-18T20:50:45.358Z,10.90
2018-10-18T20:52:47.479Z,11.43
2018-10-18T20:54:49.669Z,10.00
2018-10-18T20:56:51.883Z,10.17
2018-10-18T20:58:53.982Z,11.70
2018-10-18T21:00:56.770Z,15.77
2018-10-18T21:02:59.250Z,11.60
2018-10-18T21:05:01.364Z,12.80
2018-10-18T21:07:03.684Z,10.70
2018-10-18T21:09:08.010Z,13.93
2018-10-18T21:11:10.280Z,13.53
2018-10-18T21:13:12.438Z,13.70
2018-10-18T21:15:14.840Z,13.20
2018-10-18T21:17:17.003Z,17.20
2018-10-18T21:19:19.147Z,15.20
2018-10-18T21:21:21.338Z,17.60
2018-10-18T21:23:23.597Z,28.77
2018-10-18T21:25:25.722Z,15.73
2018-10-18T21:27:27.922Z,15.97
2018-10-18T21:29:30.382Z,20.10
2018-10-18T21:31:32.534Z,24.00
2018-10-18T21:33:34.685Z,17.73
2018-10-18T21:35:36.899Z,13.40
2018-10-18T21:37:39.058Z,9.90
2018-10-18T21:39:41.207Z,10.97
2018-10-18T21:41:43.419Z,10.43
2018-10-18T21:43:45.544Z,8.60
2018-10-18T21:45:47.883Z,13.10
2018-10-18T21:47:50.154Z,9.43
2018-10-18T21:49:52.479Z,7.10
2018-10-18T21:51:54.628Z,10.83
2018-10-18T21:53:56.787Z,9.63
2018-10-18T21:55:59.240Z,11.47
2018-10-18T21:58:01.459Z,13.97
2018-10-18T22:00:05.459Z,17.20
2018-10-18T22:02:07.851Z,9.93
2018-10-18T22:04:10.051Z,10.97
2018-10-18T22:06:12.198Z,10.30
2018-10-18T22:08:14.760Z,10.20
2018-10-18T22:10:16.935Z,8.33
2018-10-18T22:12:19.074Z,11.30
2018-10-18T22:14:21.453Z,12.00
2018-10-18T22:16:23.654Z,10.23
2018-10-18T22:18:25.786Z,12.40
2018-10-18T22:20:27.978Z,10.50
2018-10-18T22:22:30.115Z,11.33
2018-10-18T22:24:32.270Z,9.97
2018-10-18T22:26:34.422Z,10.77
2018-10-18T22:28:36.612Z,8.43
2018-10-18T22:30:38.821Z,8.77
2018-10-18T22:32:41.014Z,11.07
2018-10-18T22:34:43.193Z,9.87
2018-10-18T22:36:45.660Z,10.50
2018-10-18T22:38:47.842Z,9.87
2018-10-18T22:40:50.007Z,8.70
2018-10-18T22:42:52.279Z,7.90
2018-10-18T22:44:54.474Z,13.77
2018-10-18T22:46:56.621Z,10.23
2018-10-18T22:48:58.771Z,8.27
2018-10-18T22:51:00.979Z,9.57
2018-10-18T22:53:03.228Z,7.43
2018-10-18T22:55:05.488Z,6.80
2018-10-18T22:57:07.710Z,10.07
2018-10-18T22:59:09.920Z,9.00
2018-10-18T23:01:12.072Z,9.00
2018-10-18T23:03:14.389Z,8.70
2018-10-18T23:05:16.555Z,16.63
2018-10-18T23:07:18.677Z,9.67
2018-10-18T23:09:20.820Z,7.20
2018-10-18T23:11:22.999Z,9.13
2018-10-18T23:13:25.239Z,8.50
2018-10-18T23:15:27.460Z,9.50
2018-10-18T23:17:29.678Z,7.33
2018-10-18T23:19:32.082Z,6.97
2018-10-18T23:21:34.250Z,6.83
2018-10-18T23:23:36.396Z,7.50
2018-10-18T23:25:38.986Z,6.83
2018-10-18T23:27:41.170Z,11.80
2018-10-18T23:29:43.332Z,9.23
2018-10-18T23:31:45.501Z,11.87
2018-10-18T23:33:47.917Z,8.37
2018-10-18T23:35:50.089Z,7.27
2018-10-18T23:37:52.247Z,7.73
2018-10-18T23:39:54.596Z,10.90
2018-10-18T23:41:56.821Z,9.10
2018-10-18T23:43:58.978Z,10.10
2018-10-18T23:46:01.468Z,7.43
2018-10-18T23:48:03.643Z,11.57
2018-10-18T23:50:05.836Z,9.00
2018-10-18T23:52:08.277Z,7.93
2018-10-18T23:54:10.411Z,7.73
2018-10-18T23:56:12.557Z,7.13
2018-10-18T23:58:14.721Z,6.70
